sensor_id;sensor_type;location;lat;lon;timestamp;P1;durP1;ratioP1;P2;durP2;ratioP2
17858;SDS011;35426;30.698;104.050;2023-07-08T00:01:43;95.18;;;62.33;;
17858;SDS011;35426;30.698;104.050;2023-07-08T00:04:16;104.15;;;62.88;;
17858;SDS011;35426;30.698;104.050;2023-07-08T00:06:53;93.63;;;62.25;;
17858;SDS011;35426;30.698;104.050;2023-07-08T00:09:26;95.72;;;58.35;;
17858;SDS011;35426;30.698;104.050;2023-07-08T00:11:59;96.43;;;62.63;;
17858;SDS011;35426;30.698;104.050;2023-07-08T00:14:34;102.45;;;66.05;;
17858;SDS011;35426;30.698;104.050;2023-07-08T00:17:10;99.30;;;67.05;;
17858;SDS011;35426;30.698;104.050;2023-07-08T00:19:44;97.22;;;63.75;;
17858;SDS011;35426;30.698;104.050;2023-07-08T00:22:20;94.85;;;63.55;;
17858;SDS011;35426;30.698;104.050;2023-07-08T00:24:53;89.50;;;62.70;;
17858;SDS011;35426;30.698;104.050;2023-07-08T00:27:28;98.45;;;71.70;;
17858;SDS011;35426;30.698;104.050;2023-07-08T00:32:57;95.32;;;63.90;;
17858;SDS011;35426;30.698;104.050;2023-07-08T00:35:33;92.80;;;65.07;;
17858;SDS011;35426;30.698;104.050;2023-07-08T00:38:14;88.85;;;61.65;;
17858;SDS011;35426;30.698;104.050;2023-07-08T00:40:58;86.32;;;58.13;;
17858;SDS011;35426;30.698;104.050;2023-07-08T00:43:35;97.72;;;64.60;;
17858;SDS011;35426;30.698;104.050;2023-07-08T00:46:13;107.47;;;74.65;;
17858;SDS011;35426;30.698;104.050;2023-07-08T00:49:05;103.80;;;73.07;;
17858;SDS011;35426;30.698;104.050;2023-07-08T00:51:53;94.30;;;64.35;;
17858;SDS011;35426;30.698;104.050;2023-07-08T00:54:29;99.80;;;66.50;;
17858;SDS011;35426;30.698;104.050;2023-07-08T00:57:03;118.30;;;77.45;;
17858;SDS011;35426;30.698;104.050;2023-07-08T00:59:36;94.20;;;62.35;;
17858;SDS011;35426;30.698;104.050;2023-07-08T01:02:15;100.05;;;68.45;;
17858;SDS011;35426;30.698;104.050;2023-07-08T01:04:54;106.88;;;76.60;;
17858;SDS011;35426;30.698;104.050;2023-07-08T01:07:33;102.10;;;70.70;;
17858;SDS011;35426;30.698;104.050;2023-07-08T01:10:09;94.97;;;64.05;;
17858;SDS011;35426;30.698;104.050;2023-07-08T01:12:46;106.18;;;72.30;;
17858;SDS011;35426;30.698;104.050;2023-07-08T01:15:30;90.28;;;59.47;;
17858;SDS011;35426;30.698;104.050;2023-07-08T01:18:08;95.60;;;66.78;;
17858;SDS011;35426;30.698;104.050;2023-07-08T01:20:45;110.50;;;78.30;;
17858;SDS011;35426;30.698;104.050;2023-07-08T01:23:24;94.15;;;60.88;;
17858;SDS011;35426;30.698;104.050;2023-07-08T01:25:58;118.78;;;84.53;;
17858;SDS011;35426;30.698;104.050;2023-07-08T01:28:33;87.05;;;59.92;;
17858;SDS011;35426;30.698;104.050;2023-07-08T01:31:06;99.32;;;68.68;;
17858;SDS011;35426;30.698;104.050;2023-07-08T01:33:40;118.65;;;84.28;;
17858;SDS011;35426;30.698;104.050;2023-07-08T01:36:13;105.53;;;75.97;;
17858;SDS011;35426;30.698;104.050;2023-07-08T01:38:48;121.93;;;83.60;;
17858;SDS011;35426;30.698;104.050;2023-07-08T01:41:22;110.82;;;73.03;;
17858;SDS011;35426;30.698;104.050;2023-07-08T01:43:55;104.38;;;73.63;;
17858;SDS011;35426;30.698;104.050;2023-07-08T01:46:28;117.57;;;80.32;;
17858;SDS011;35426;30.698;104.050;2023-07-08T01:49:03;107.32;;;74.47;;
17858;SDS011;35426;30.698;104.050;2023-07-08T01:51:35;118.57;;;80.32;;
17858;SDS011;35426;30.698;104.050;2023-07-08T01:54:13;118.35;;;80.50;;
17858;SDS011;35426;30.698;104.050;2023-07-08T01:56:47;104.10;;;70.65;;
17858;SDS011;35426;30.698;104.050;2023-07-08T01:59:26;116.85;;;80.13;;
17858;SDS011;35426;30.698;104.050;2023-07-08T02:02:00;102.28;;;63.92;;
17858;SDS011;35426;30.698;104.050;2023-07-08T02:04:33;108.50;;;71.18;;
17858;SDS011;35426;30.698;104.050;2023-07-08T02:07:06;94.40;;;62.53;;
17858;SDS011;35426;30.698;104.050;2023-07-08T02:09:44;110.53;;;72.43;;
17858;SDS011;35426;30.698;104.050;2023-07-08T02:12:18;121.30;;;84.20;;
17858;SDS011;35426;30.698;104.050;2023-07-08T02:14:52;100.50;;;66.78;;
17858;SDS011;35426;30.698;104.050;2023-07-08T02:17:27;100.10;;;64.05;;
17858;SDS011;35426;30.698;104.050;2023-07-08T02:20:03;103.80;;;69.53;;
17858;SDS011;35426;30.698;104.050;2023-07-08T02:22:39;106.05;;;70.57;;
17858;SDS011;35426;30.698;104.050;2023-07-08T02:25:14;100.00;;;64.47;;
17858;SDS011;35426;30.698;104.050;2023-07-08T02:27:48;96.95;;;67.65;;
17858;SDS011;35426;30.698;104.050;2023-07-08T02:30:21;108.60;;;75.15;;
17858;SDS011;35426;30.698;104.050;2023-07-08T02:32:55;107.15;;;72.47;;
17858;SDS011;35426;30.698;104.050;2023-07-08T02:35:29;89.25;;;62.28;;
17858;SDS011;35426;30.698;104.050;2023-07-08T02:38:02;105.32;;;71.97;;
17858;SDS011;35426;30.698;104.050;2023-07-08T02:40:38;100.03;;;60.50;;
17858;SDS011;35426;30.698;104.050;2023-07-08T02:43:11;104.95;;;65.93;;
17858;SDS011;35426;30.698;104.050;2023-07-08T02:45:48;103.78;;;67.72;;
17858;SDS011;35426;30.698;104.050;2023-07-08T02:48:22;90.82;;;56.72;;
17858;SDS011;35426;30.698;104.050;2023-07-08T02:50:59;92.40;;;53.70;;
17858;SDS011;35426;30.698;104.050;2023-07-08T02:53:33;82.65;;;51.03;;
17858;SDS011;35426;30.698;104.050;2023-07-08T02:56:08;80.15;;;53.35;;
17858;SDS011;35426;30.698;104.050;2023-07-08T02:58:41;85.93;;;56.00;;
17858;SDS011;35426;30.698;104.050;2023-07-08T03:01:15;92.72;;;55.78;;
17858;SDS011;35426;30.698;104.050;2023-07-08T03:03:48;82.20;;;57.40;;
17858;SDS011;35426;30.698;104.050;2023-07-08T03:06:26;104.47;;;66.70;;
17858;SDS011;35426;30.698;104.050;2023-07-08T03:09:01;76.15;;;52.55;;
17858;SDS011;35426;30.698;104.050;2023-07-08T03:11:39;92.00;;;61.35;;
17858;SDS011;35426;30.698;104.050;2023-07-08T03:14:14;76.97;;;50.42;;
17858;SDS011;35426;30.698;104.050;2023-07-08T03:16:49;95.20;;;59.03;;
17858;SDS011;35426;30.698;104.050;2023-07-08T03:19:24;91.93;;;62.90;;
17858;SDS011;35426;30.698;104.050;2023-07-08T03:21:58;98.07;;;64.57;;
17858;SDS011;35426;30.698;104.050;2023-07-08T03:24:31;85.40;;;57.75;;
17858;SDS011;35426;30.698;104.050;2023-07-08T03:27:09;95.93;;;63.17;;
17858;SDS011;35426;30.698;104.050;2023-07-08T03:29:45;101.05;;;63.05;;
17858;SDS011;35426;30.698;104.050;2023-07-08T03:32:19;91.85;;;57.53;;
17858;SDS011;35426;30.698;104.050;2023-07-08T03:34:54;111.35;;;70.40;;
17858;SDS011;35426;30.698;104.050;2023-07-08T03:37:30;100.13;;;65.90;;
17858;SDS011;35426;30.698;104.050;2023-07-08T03:40:05;90.38;;;56.92;;
17858;SDS011;35426;30.698;104.050;2023-07-08T03:42:43;101.50;;;61.95;;
17858;SDS011;35426;30.698;104.050;2023-07-08T03:45:17;104.30;;;68.82;;
17858;SDS011;35426;30.698;104.050;2023-07-08T03:47:51;90.50;;;56.13;;
17858;SDS011;35426;30.698;104.050;2023-07-08T03:50:25;95.15;;;61.00;;
17858;SDS011;35426;30.698;104.050;2023-07-08T03:52:58;97.30;;;56.88;;
17858;SDS011;35426;30.698;104.050;2023-07-08T03:55:35;91.63;;;64.72;;
17858;SDS011;35426;30.698;104.050;2023-07-08T03:58:11;82.97;;;56.88;;
17858;SDS011;35426;30.698;104.050;2023-07-08T04:00:44;88.75;;;56.75;;
17858;SDS011;35426;30.698;104.050;2023-07-08T04:03:18;96.10;;;64.47;;
17858;SDS011;35426;30.698;104.050;2023-07-08T04:05:51;95.70;;;62.90;;
17858;SDS011;35426;30.698;104.050;2023-07-08T04:08:25;79.32;;;54.63;;
17858;SDS011;35426;30.698;104.050;2023-07-08T04:10:58;71.78;;;47.10;;
17858;SDS011;35426;30.698;104.050;2023-07-08T04:13:34;72.75;;;48.25;;
17858;SDS011;35426;30.698;104.050;2023-07-08T04:16:13;59.90;;;41.15;;
17858;SDS011;35426;30.698;104.050;2023-07-08T04:18:48;56.90;;;36.20;;
17858;SDS011;35426;30.698;104.050;2023-07-08T04:21:24;54.20;;;35.83;;
17858;SDS011;35426;30.698;104.050;2023-07-08T04:23:59;65.40;;;46.42;;
17858;SDS011;35426;30.698;104.050;2023-07-08T04:26:32;80.13;;;54.60;;
17858;SDS011;35426;30.698;104.050;2023-07-08T04:29:11;53.92;;;36.58;;
17858;SDS011;35426;30.698;104.050;2023-07-08T04:31:45;50.33;;;29.52;;
17858;SDS011;35426;30.698;104.050;2023-07-08T04:34:19;56.67;;;36.65;;
17858;SDS011;35426;30.698;104.050;2023-07-08T04:36:52;52.03;;;35.45;;
17858;SDS011;35426;30.698;104.050;2023-07-08T04:39:25;51.65;;;33.30;;
17858;SDS011;35426;30.698;104.050;2023-07-08T04:41:58;43.85;;;30.58;;
17858;SDS011;35426;30.698;104.050;2023-07-08T04:44:33;45.80;;;26.90;;
17858;SDS011;35426;30.698;104.050;2023-07-08T04:47:09;46.88;;;27.38;;
17858;SDS011;35426;30.698;104.050;2023-07-08T04:49:43;40.58;;;24.98;;
17858;SDS011;35426;30.698;104.050;2023-07-08T04:52:16;39.30;;;24.40;;
17858;SDS011;35426;30.698;104.050;2023-07-08T04:54:49;38.67;;;26.70;;
17858;SDS011;35426;30.698;104.050;2023-07-08T04:57:22;47.75;;;28.50;;
17858;SDS011;35426;30.698;104.050;2023-07-08T04:59:58;45.65;;;27.70;;
17858;SDS011;35426;30.698;104.050;2023-07-08T05:02:32;42.60;;;25.10;;
17858;SDS011;35426;30.698;104.050;2023-07-08T05:05:09;37.72;;;23.33;;
17858;SDS011;35426;30.698;104.050;2023-07-08T05:07:42;31.92;;;22.67;;
17858;SDS011;35426;30.698;104.050;2023-07-08T05:10:16;35.97;;;23.38;;
17858;SDS011;35426;30.698;104.050;2023-07-08T05:12:50;36.22;;;25.63;;
17858;SDS011;35426;30.698;104.050;2023-07-08T05:15:26;34.42;;;24.17;;
17858;SDS011;35426;30.698;104.050;2023-07-08T05:18:00;36.15;;;24.83;;
17858;SDS011;35426;30.698;104.050;2023-07-08T05:20:39;38.05;;;22.83;;
17858;SDS011;35426;30.698;104.050;2023-07-08T05:23:14;42.45;;;27.67;;
17858;SDS011;35426;30.698;104.050;2023-07-08T05:25:48;47.75;;;27.83;;
17858;SDS011;35426;30.698;104.050;2023-07-08T05:28:24;46.65;;;30.02;;
17858;SDS011;35426;30.698;104.050;2023-07-08T05:31:00;43.00;;;29.20;;
17858;SDS011;35426;30.698;104.050;2023-07-08T05:33:34;44.08;;;26.75;;
17858;SDS011;35426;30.698;104.050;2023-07-08T05:36:07;47.05;;;32.85;;
17858;SDS011;35426;30.698;104.050;2023-07-08T05:38:41;47.70;;;29.27;;
17858;SDS011;35426;30.698;104.050;2023-07-08T05:41:18;52.72;;;31.42;;
17858;SDS011;35426;30.698;104.050;2023-07-08T05:43:52;42.78;;;25.70;;
17858;SDS011;35426;30.698;104.050;2023-07-08T05:46:29;41.50;;;25.58;;
17858;SDS011;35426;30.698;104.050;2023-07-08T05:49:03;40.58;;;27.55;;
17858;SDS011;35426;30.698;104.050;2023-07-08T05:51:36;38.58;;;23.63;;
17858;SDS011;35426;30.698;104.050;2023-07-08T05:54:09;39.20;;;24.38;;
17858;SDS011;35426;30.698;104.050;2023-07-08T05:56:43;42.67;;;23.80;;
17858;SDS011;35426;30.698;104.050;2023-07-08T05:59:17;41.65;;;26.50;;
17858;SDS011;35426;30.698;104.050;2023-07-08T06:01:52;39.72;;;25.00;;
17858;SDS011;35426;30.698;104.050;2023-07-08T06:04:25;44.53;;;25.30;;
17858;SDS011;35426;30.698;104.050;2023-07-08T06:06:59;36.38;;;23.23;;
17858;SDS011;35426;30.698;104.050;2023-07-08T06:09:33;36.65;;;22.75;;
17858;SDS011;35426;30.698;104.050;2023-07-08T06:12:08;37.05;;;25.63;;
17858;SDS011;35426;30.698;104.050;2023-07-08T06:14:42;39.58;;;23.10;;
17858;SDS011;35426;30.698;104.050;2023-07-08T06:17:19;36.22;;;21.63;;
17858;SDS011;35426;30.698;104.050;2023-07-08T06:20:08;26.05;;;18.13;;
17858;SDS011;35426;30.698;104.050;2023-07-08T06:22:46;27.70;;;18.45;;
17858;SDS011;35426;30.698;104.050;2023-07-08T06:25:21;32.75;;;20.02;;
17858;SDS011;35426;30.698;104.050;2023-07-08T06:27:54;33.25;;;20.35;;
17858;SDS011;35426;30.698;104.050;2023-07-08T06:30:28;22.38;;;17.25;;
17858;SDS011;35426;30.698;104.050;2023-07-08T06:33:04;30.52;;;17.80;;
17858;SDS011;35426;30.698;104.050;2023-07-08T06:35:38;32.30;;;19.73;;
17858;SDS011;35426;30.698;104.050;2023-07-08T06:38:12;38.80;;;21.45;;
17858;SDS011;35426;30.698;104.050;2023-07-08T06:40:46;33.72;;;21.73;;
17858;SDS011;35426;30.698;104.050;2023-07-08T06:43:21;34.40;;;20.10;;
17858;SDS011;35426;30.698;104.050;2023-07-08T06:46:00;30.23;;;20.20;;
17858;SDS011;35426;30.698;104.050;2023-07-08T06:48:37;39.15;;;19.65;;
17858;SDS011;35426;30.698;104.050;2023-07-08T06:51:11;29.08;;;19.30;;
17858;SDS011;35426;30.698;104.050;2023-07-08T06:53:47;26.50;;;16.98;;
17858;SDS011;35426;30.698;104.050;2023-07-08T06:56:20;22.23;;;15.57;;
17858;SDS011;35426;30.698;104.050;2023-07-08T06:58:53;28.05;;;16.92;;
17858;SDS011;35426;30.698;104.050;2023-07-08T07:01:26;28.00;;;17.75;;
17858;SDS011;35426;30.698;104.050;2023-07-08T07:04:02;28.33;;;18.10;;
17858;SDS011;35426;30.698;104.050;2023-07-08T07:06:36;30.27;;;17.92;;
17858;SDS011;35426;30.698;104.050;2023-07-08T07:09:11;33.17;;;17.52;;
17858;SDS011;35426;30.698;104.050;2023-07-08T07:11:44;34.67;;;18.25;;
17858;SDS011;35426;30.698;104.050;2023-07-08T07:14:20;25.80;;;17.52;;
17858;SDS011;35426;30.698;104.050;2023-07-08T07:16:58;30.63;;;18.17;;
17858;SDS011;35426;30.698;104.050;2023-07-08T07:19:38;25.77;;;17.48;;
17858;SDS011;35426;30.698;104.050;2023-07-08T07:22:13;34.50;;;18.00;;
17858;SDS011;35426;30.698;104.050;2023-07-08T07:24:47;24.70;;;16.17;;
17858;SDS011;35426;30.698;104.050;2023-07-08T07:27:21;31.58;;;15.90;;
17858;SDS011;35426;30.698;104.050;2023-07-08T07:29:54;26.00;;;16.02;;
17858;SDS011;35426;30.698;104.050;2023-07-08T07:32:28;24.55;;;15.43;;
17858;SDS011;35426;30.698;104.050;2023-07-08T07:35:06;26.38;;;16.20;;
17858;SDS011;35426;30.698;104.050;2023-07-08T07:37:42;25.13;;;16.33;;
17858;SDS011;35426;30.698;104.050;2023-07-08T07:40:16;27.20;;;15.15;;
17858;SDS011;35426;30.698;104.050;2023-07-08T07:42:49;25.50;;;15.05;;
17858;SDS011;35426;30.698;104.050;2023-07-08T07:45:23;20.70;;;14.75;;
17858;SDS011;35426;30.698;104.050;2023-07-08T07:47:56;24.75;;;14.73;;
17858;SDS011;35426;30.698;104.050;2023-07-08T07:50:32;23.23;;;13.93;;
17858;SDS011;35426;30.698;104.050;2023-07-08T07:53:07;24.85;;;14.73;;
17858;SDS011;35426;30.698;104.050;2023-07-08T07:55:40;26.55;;;14.40;;
17858;SDS011;35426;30.698;104.050;2023-07-08T07:58:15;24.35;;;14.10;;
17858;SDS011;35426;30.698;104.050;2023-07-08T08:00:48;23.95;;;14.68;;
17858;SDS011;35426;30.698;104.050;2023-07-08T08:03:21;18.88;;;13.95;;
17858;SDS011;35426;30.698;104.050;2023-07-08T08:05:57;22.10;;;14.23;;
17858;SDS011;35426;30.698;104.050;2023-07-08T08:08:33;24.38;;;13.60;;
17858;SDS011;35426;30.698;104.050;2023-07-08T08:11:06;22.08;;;14.65;;
17858;SDS011;35426;30.698;104.050;2023-07-08T08:13:40;21.80;;;13.00;;
17858;SDS011;35426;30.698;104.050;2023-07-08T08:16:14;23.30;;;14.00;;
17858;SDS011;35426;30.698;104.050;2023-07-08T08:18:48;25.80;;;13.40;;
17858;SDS011;35426;30.698;104.050;2023-07-08T08:21:23;22.35;;;14.00;;
17858;SDS011;35426;30.698;104.050;2023-07-08T08:23:56;21.10;;;13.98;;
17858;SDS011;35426;30.698;104.050;2023-07-08T08:26:30;26.85;;;14.25;;
17858;SDS011;35426;30.698;104.050;2023-07-08T08:29:06;22.85;;;14.15;;
17858;SDS011;35426;30.698;104.050;2023-07-08T08:31:40;26.15;;;15.02;;
17858;SDS011;35426;30.698;104.050;2023-07-08T08:34:13;25.63;;;15.20;;
17858;SDS011;35426;30.698;104.050;2023-07-08T08:36:48;21.58;;;14.85;;
17858;SDS011;35426;30.698;104.050;2023-07-08T08:39:24;24.17;;;14.25;;
17858;SDS011;35426;30.698;104.050;2023-07-08T08:41:58;21.15;;;13.55;;
17858;SDS011;35426;30.698;104.050;2023-07-08T08:44:32;21.23;;;14.05;;
17858;SDS011;35426;30.698;104.050;2023-07-08T08:47:10;26.15;;;14.10;;
17858;SDS011;35426;30.698;104.050;2023-07-08T08:49:50;22.85;;;13.82;;
17858;SDS011;35426;30.698;104.050;2023-07-08T08:52:31;20.25;;;14.40;;
17858;SDS011;35426;30.698;104.050;2023-07-08T08:55:08;21.40;;;14.30;;
17858;SDS011;35426;30.698;104.050;2023-07-08T08:57:45;24.77;;;14.18;;
17858;SDS011;35426;30.698;104.050;2023-07-08T09:00:23;22.63;;;13.65;;
17858;SDS011;35426;30.698;104.050;2023-07-08T09:03:02;22.10;;;14.23;;
17858;SDS011;35426;30.698;104.050;2023-07-08T09:05:42;22.38;;;13.18;;
17858;SDS011;35426;30.698;104.050;2023-07-08T09:08:23;23.20;;;13.07;;
17858;SDS011;35426;30.698;104.050;2023-07-08T09:11:10;19.67;;;12.75;;
17858;SDS011;35426;30.698;104.050;2023-07-08T09:13:57;23.63;;;14.13;;
17858;SDS011;35426;30.698;104.050;2023-07-08T09:16:34;19.70;;;12.57;;
17858;SDS011;35426;30.698;104.050;2023-07-08T09:19:16;22.75;;;13.00;;
17858;SDS011;35426;30.698;104.050;2023-07-08T09:21:54;21.45;;;14.65;;
17858;SDS011;35426;30.698;104.050;2023-07-08T09:24:35;26.98;;;16.52;;
17858;SDS011;35426;30.698;104.050;2023-07-08T09:27:12;23.63;;;14.43;;
17858;SDS011;35426;30.698;104.050;2023-07-08T09:29:45;27.10;;;17.02;;
17858;SDS011;35426;30.698;104.050;2023-07-08T09:32:22;27.45;;;17.05;;
17858;SDS011;35426;30.698;104.050;2023-07-08T09:35:02;28.70;;;18.73;;
17858;SDS011;35426;30.698;104.050;2023-07-08T09:37:37;34.50;;;22.88;;
17858;SDS011;35426;30.698;104.050;2023-07-08T09:40:17;36.58;;;23.58;;
17858;SDS011;35426;30.698;104.050;2023-07-08T09:42:55;43.17;;;23.55;;
17858;SDS011;35426;30.698;104.050;2023-07-08T09:45:47;35.55;;;23.85;;
17858;SDS011;35426;30.698;104.050;2023-07-08T09:48:23;32.42;;;22.88;;
17858;SDS011;35426;30.698;104.050;2023-07-08T09:50:57;40.08;;;23.63;;
17858;SDS011;35426;30.698;104.050;2023-07-08T09:53:31;46.17;;;25.52;;
17858;SDS011;35426;30.698;104.050;2023-07-08T09:56:08;39.80;;;26.50;;
17858;SDS011;35426;30.698;104.050;2023-07-08T09:58:45;41.83;;;25.85;;
17858;SDS011;35426;30.698;104.050;2023-07-08T10:01:21;41.92;;;26.27;;
17858;SDS011;35426;30.698;104.050;2023-07-08T10:03:58;41.70;;;24.67;;
17858;SDS011;35426;30.698;104.050;2023-07-08T10:06:32;33.53;;;24.33;;
17858;SDS011;35426;30.698;104.050;2023-07-08T10:09:09;34.90;;;24.73;;
17858;SDS011;35426;30.698;104.050;2023-07-08T10:11:51;35.67;;;24.23;;
17858;SDS011;35426;30.698;104.050;2023-07-08T10:14:30;34.13;;;23.13;;
17858;SDS011;35426;30.698;104.050;2023-07-08T10:17:07;38.30;;;25.00;;
17858;SDS011;35426;30.698;104.050;2023-07-08T10:19:45;35.53;;;23.02;;
17858;SDS011;35426;30.698;104.050;2023-07-08T10:22:22;39.00;;;25.45;;
17858;SDS011;35426;30.698;104.050;2023-07-08T10:25:27;34.42;;;22.92;;
17858;SDS011;35426;30.698;104.050;2023-07-08T10:28:20;38.75;;;25.17;;
17858;SDS011;35426;30.698;104.050;2023-07-08T10:31:05;39.28;;;24.52;;
17858;SDS011;35426;30.698;104.050;2023-07-08T10:33:55;32.65;;;22.92;;
17858;SDS011;35426;30.698;104.050;2023-07-08T10:36:42;35.10;;;22.15;;
17858;SDS011;35426;30.698;104.050;2023-07-08T10:39:37;34.83;;;21.63;;
17858;SDS011;35426;30.698;104.050;2023-07-08T10:45:33;34.42;;;21.80;;
17858;SDS011;35426;30.698;104.050;2023-07-08T10:48:19;37.65;;;22.10;;
17858;SDS011;35426;30.698;104.050;2023-07-08T10:51:08;33.72;;;21.88;;
17858;SDS011;35426;30.698;104.050;2023-07-08T10:53:52;34.55;;;21.15;;
17858;SDS011;35426;30.698;104.050;2023-07-08T10:56:45;31.20;;;23.02;;
17858;SDS011;35426;30.698;104.050;2023-07-08T10:59:30;35.28;;;21.92;;
17858;SDS011;35426;30.698;104.050;2023-07-08T11:02:28;38.72;;;23.75;;
17858;SDS011;35426;30.698;104.050;2023-07-08T11:05:36;33.75;;;22.80;;
17858;SDS011;35426;30.698;104.050;2023-07-08T11:08:20;35.63;;;22.80;;
17858;SDS011;35426;30.698;104.050;2023-07-08T11:10:59;34.67;;;22.40;;
17858;SDS011;35426;30.698;104.050;2023-07-08T11:13:44;37.03;;;22.73;;
17858;SDS011;35426;30.698;104.050;2023-07-08T11:16:22;31.13;;;22.13;;
17858;SDS011;35426;30.698;104.050;2023-07-08T11:19:04;34.95;;;23.88;;
17858;SDS011;35426;30.698;104.050;2023-07-08T11:21:43;38.28;;;23.45;;
17858;SDS011;35426;30.698;104.050;2023-07-08T11:24:21;36.80;;;24.23;;
17858;SDS011;35426;30.698;104.050;2023-07-08T11:27:00;37.72;;;24.38;;
17858;SDS011;35426;30.698;104.050;2023-07-08T11:29:40;35.53;;;22.88;;
17858;SDS011;35426;30.698;104.050;2023-07-08T11:32:18;41.05;;;23.48;;
17858;SDS011;35426;30.698;104.050;2023-07-08T11:34:55;37.35;;;24.13;;
17858;SDS011;35426;30.698;104.050;2023-07-08T11:37:32;31.90;;;22.50;;
17858;SDS011;35426;30.698;104.050;2023-07-08T11:40:07;35.33;;;22.77;;
17858;SDS011;35426;30.698;104.050;2023-07-08T11:42:49;33.50;;;23.63;;
17858;SDS011;35426;30.698;104.050;2023-07-08T11:45:29;33.65;;;22.58;;
17858;SDS011;35426;30.698;104.050;2023-07-08T11:48:05;34.90;;;22.70;;
17858;SDS011;35426;30.698;104.050;2023-07-08T11:50:45;37.35;;;23.42;;
17858;SDS011;35426;30.698;104.050;2023-07-08T11:53:34;35.85;;;22.77;;
17858;SDS011;35426;30.698;104.050;2023-07-08T11:56:21;38.33;;;22.30;;
17858;SDS011;35426;30.698;104.050;2023-07-08T11:59:03;31.17;;;20.65;;
17858;SDS011;35426;30.698;104.050;2023-07-08T12:01:46;34.53;;;21.35;;
17858;SDS011;35426;30.698;104.050;2023-07-08T12:04:28;36.22;;;20.67;;
17858;SDS011;35426;30.698;104.050;2023-07-08T12:07:06;31.67;;;20.67;;
17858;SDS011;35426;30.698;104.050;2023-07-08T12:09:47;32.67;;;20.88;;
17858;SDS011;35426;30.698;104.050;2023-07-08T12:12:31;30.42;;;19.58;;
17858;SDS011;35426;30.698;104.050;2023-07-08T12:15:09;29.25;;;18.80;;
17858;SDS011;35426;30.698;104.050;2023-07-08T12:17:46;30.35;;;19.13;;
17858;SDS011;35426;30.698;104.050;2023-07-08T12:20:22;37.80;;;18.90;;
17858;SDS011;35426;30.698;104.050;2023-07-08T12:23:01;32.97;;;19.83;;
17858;SDS011;35426;30.698;104.050;2023-07-08T12:25:40;30.35;;;17.83;;
17858;SDS011;35426;30.698;104.050;2023-07-08T12:28:15;31.23;;;18.83;;
17858;SDS011;35426;30.698;104.050;2023-07-08T12:30:48;35.28;;;18.17;;
17858;SDS011;35426;30.698;104.050;2023-07-08T12:33:25;29.95;;;16.35;;
17858;SDS011;35426;30.698;104.050;2023-07-08T12:36:01;27.58;;;15.80;;
17858;SDS011;35426;30.698;104.050;2023-07-08T12:38:37;27.48;;;16.17;;
17858;SDS011;35426;30.698;104.050;2023-07-08T12:41:16;23.98;;;15.48;;
17858;SDS011;35426;30.698;104.050;2023-07-08T12:43:51;25.38;;;15.98;;
17858;SDS011;35426;30.698;104.050;2023-07-08T12:46:24;25.40;;;14.68;;
17858;SDS011;35426;30.698;104.050;2023-07-08T12:48:59;23.10;;;14.50;;
17858;SDS011;35426;30.698;104.050;2023-07-08T12:51:34;25.50;;;14.65;;
17858;SDS011;35426;30.698;104.050;2023-07-08T12:54:10;25.65;;;14.23;;
17858;SDS011;35426;30.698;104.050;2023-07-08T12:56:45;24.40;;;15.23;;
17858;SDS011;35426;30.698;104.050;2023-07-08T12:59:19;25.33;;;14.23;;
17858;SDS011;35426;30.698;104.050;2023-07-08T13:01:53;22.27;;;14.48;;
17858;SDS011;35426;30.698;104.050;2023-07-08T13:04:27;24.75;;;14.57;;
17858;SDS011;35426;30.698;104.050;2023-07-08T13:07:02;26.33;;;15.98;;
17858;SDS011;35426;30.698;104.050;2023-07-08T13:09:39;27.38;;;16.63;;
17858;SDS011;35426;30.698;104.050;2023-07-08T13:12:18;29.48;;;17.40;;
17858;SDS011;35426;30.698;104.050;2023-07-08T13:14:54;32.72;;;18.33;;
17858;SDS011;35426;30.698;104.050;2023-07-08T13:17:31;32.55;;;17.08;;
17858;SDS011;35426;30.698;104.050;2023-07-08T13:20:09;31.40;;;17.20;;
17858;SDS011;35426;30.698;104.050;2023-07-08T13:22:48;32.17;;;16.05;;
17858;SDS011;35426;30.698;104.050;2023-07-08T13:25:29;31.98;;;16.05;;
17858;SDS011;35426;30.698;104.050;2023-07-08T13:28:14;28.15;;;16.40;;
17858;SDS011;35426;30.698;104.050;2023-07-08T13:30:53;23.23;;;15.27;;
17858;SDS011;35426;30.698;104.050;2023-07-08T13:33:30;24.88;;;15.07;;
17858;SDS011;35426;30.698;104.050;2023-07-08T13:36:05;25.13;;;15.55;;
17858;SDS011;35426;30.698;104.050;2023-07-08T13:38:41;25.95;;;15.30;;
17858;SDS011;35426;30.698;104.050;2023-07-08T13:41:19;26.65;;;15.45;;
17858;SDS011;35426;30.698;104.050;2023-07-08T13:43:55;26.08;;;16.25;;
17858;SDS011;35426;30.698;104.050;2023-07-08T13:46:37;26.52;;;15.80;;
17858;SDS011;35426;30.698;104.050;2023-07-08T13:49:13;27.00;;;16.17;;
17858;SDS011;35426;30.698;104.050;2023-07-08T13:51:51;23.98;;;16.55;;
17858;SDS011;35426;30.698;104.050;2023-07-08T13:54:38;27.35;;;17.65;;
17858;SDS011;35426;30.698;104.050;2023-07-08T13:57:20;28.67;;;17.05;;
17858;SDS011;35426;30.698;104.050;2023-07-08T13:59:55;30.63;;;18.00;;
17858;SDS011;35426;30.698;104.050;2023-07-08T14:02:38;23.42;;;17.98;;
17858;SDS011;35426;30.698;104.050;2023-07-08T14:05:14;29.48;;;18.58;;
17858;SDS011;35426;30.698;104.050;2023-07-08T14:07:50;28.67;;;19.65;;
17858;SDS011;35426;30.698;104.050;2023-07-08T14:10:23;28.98;;;19.08;;
17858;SDS011;35426;30.698;104.050;2023-07-08T14:12:59;25.65;;;18.92;;
17858;SDS011;35426;30.698;104.050;2023-07-08T14:15:32;31.75;;;20.77;;
17858;SDS011;35426;30.698;104.050;2023-07-08T14:18:07;35.67;;;20.15;;
17858;SDS011;35426;30.698;104.050;2023-07-08T14:20:42;30.27;;;21.05;;
17858;SDS011;35426;30.698;104.050;2023-07-08T14:23:15;26.60;;;19.73;;
17858;SDS011;35426;30.698;104.050;2023-07-08T14:25:49;29.60;;;20.35;;
17858;SDS011;35426;30.698;104.050;2023-07-08T14:28:24;30.88;;;19.33;;
17858;SDS011;35426;30.698;104.050;2023-07-08T14:30:59;26.92;;;19.42;;
17858;SDS011;35426;30.698;104.050;2023-07-08T14:33:35;28.60;;;20.67;;
17858;SDS011;35426;30.698;104.050;2023-07-08T14:36:10;32.28;;;20.95;;
17858;SDS011;35426;30.698;104.050;2023-07-08T14:38:45;31.42;;;20.50;;
17858;SDS011;35426;30.698;104.050;2023-07-08T14:41:19;27.52;;;20.08;;
17858;SDS011;35426;30.698;104.050;2023-07-08T14:43:56;29.58;;;20.63;;
17858;SDS011;35426;30.698;104.050;2023-07-08T14:46:29;38.20;;;20.27;;
17858;SDS011;35426;30.698;104.050;2023-07-08T14:49:08;26.85;;;20.02;;
17858;SDS011;35426;30.698;104.050;2023-07-08T14:51:45;32.97;;;20.55;;
17858;SDS011;35426;30.698;104.050;2023-07-08T14:54:19;33.72;;;21.05;;
17858;SDS011;35426;30.698;104.050;2023-07-08T14:56:54;31.45;;;21.02;;